Time;durP1;ratioP1;P1;durP2;ratioP2;P2;SDS_P1;SDS_P2;PMS_P1;PMS_P2;Temp;Humidity;BMP_temperature;BMP_pressure;BME280_temperature;BME280_humidity;BME280_pressure;Samples;Min_cycle;Max_cycle;Signal;HPM_P1;HPM_P2
2022/01/10 00:00:50;;;;;;;6.63;3.87;;;4.80;86.00;;;;;;4925050;29;20475;-50
2022/01/10 00:03:19;;;;;;;3.60;3.30;;;4.80;86.00;;;;;;4937862;28;20472;-49
2022/01/10 00:05:46;;;;;;;5.83;3.33;;;4.80;85.90;;;;;;4917956;29;20829;-49
2022/01/10 00:08:14;;;;;;;5.63;3.20;;;4.80;85.80;;;;;;4924877;29;20966;-50
2022/01/10 00:10:42;;;;;;;3.73;2.30;;;4.80;85.70;;;;;;4923547;29;20471;-50
2022/01/10 00:13:09;;;;;;;5.80;3.17;;;4.90;85.60;;;;;;4924539;29;20452;-50
2022/01/10 00:15:36;;;;;;;5.50;3.20;;;4.90;85.50;;;;;;4924867;29;20477;-51
2022/01/10 00:18:03;;;;;;;8.10;3.40;;;4.90;85.40;;;;;;4921880;29;20459;-49
2022/01/10 00:20:30;;;;;;;4.70;3.20;;;4.90;85.60;;;;;;4923230;29;20460;-50
2022/01/10 00:22:57;;;;;;;4.20;3.10;;;4.90;85.40;;;;;;4923053;29;20495;-50
2022/01/10 00:25:23;;;;;;;4.83;2.83;;;4.90;85.50;;;;;;4921895;29;20449;-50
2022/01/10 00:27:53;;;;;;;6.87;2.90;;;4.90;85.70;;;;;;4938862;28;20553;-50
2022/01/10 00:30:21;;;;;;;3.87;2.53;;;4.90;85.80;;;;;;4921033;29;20981;-49
2022/01/10 00:32:48;;;;;;;3.57;2.43;;;4.90;85.80;;;;;;4922378;29;20938;-49
2022/01/10 00:35:15;;;;;;;5.30;2.77;;;4.80;85.90;;;;;;4936032;29;20793;-50
2022/01/10 00:37:43;;;;;;;4.43;2.47;;;4.80;86.10;;;;;;4927223;29;20497;-50
2022/01/10 00:40:13;;;;;;;6.53;3.10;;;4.80;86.10;;;;;;4907914;29;20996;-51
2022/01/10 00:42:41;;;;;;;3.97;3.40;;;4.80;86.10;;;;;;4921868;29;20474;-50
2022/01/10 00:45:23;;;;;;;5.07;3.40;;;4.80;86.00;;;;;;4904540;29;20464;-50
2022/01/10 00:47:50;;;;;;;5.63;3.30;;;4.80;86.00;;;;;;4921854;29;20476;-50
2022/01/10 00:50:17;;;;;;;4.23;3.10;;;4.90;85.90;;;;;;4921240;29;20511;-51
2022/01/10 00:52:45;;;;;;;3.63;3.33;;;4.90;86.00;;;;;;4922276;29;20468;-49
2022/01/10 00:55:12;;;;;;;6.17;3.70;;;4.90;86.20;;;;;;4920020;29;20461;-50
2022/01/10 00:57:39;;;;;;;5.53;3.47;;;4.90;86.20;;;;;;4924746;29;20487;-50
2022/01/10 01:00:08;;;;;;;5.77;3.87;;;4.90;86.30;;;;;;4920431;29;20508;-50
2022/01/10 01:02:35;;;;;;;5.10;2.90;;;4.90;86.10;;;;;;4923912;29;20465;-50
2022/01/10 01:05:06;;;;;;;5.23;3.40;;;5.00;86.00;;;;;;4917879;29;20558;-49
2022/01/10 01:07:33;;;;;;;6.90;3.33;;;5.00;85.80;;;;;;4903232;29;20472;-49
2022/01/10 01:10:39;;;;;;;13.57;3.13;;;5.00;85.80;;;;;;4921839;29;20464;-51
2022/01/10 01:13:05;;;;;;;9.47;2.90;;;4.90;85.90;;;;;;4923170;29;20461;-50
2022/01/10 01:15:34;;;;;;;5.60;4.20;;;5.00;85.10;;;;;;4922198;29;20988;-50
2022/01/10 01:26:04;;;;;;;8.23;3.87;;;4.80;85.70;;;;;;4921245;29;20490;-50
2022/01/10 01:28:31;;;;;;;6.63;3.37;;;4.80;85.90;;;;;;4921601;29;21285;-50
2022/01/10 01:30:58;;;;;;;6.67;3.40;;;4.80;86.10;;;;;;4909281;29;20854;-49
2022/01/10 01:33:25;;;;;;;5.43;3.07;;;4.80;86.10;;;;;;4923753;29;20576;-50
2022/01/10 01:35:53;;;;;;;6.83;3.50;;;4.90;86.10;;;;;;4921730;29;20456;-50
2022/01/10 01:38:20;;;;;;;5.20;2.90;;;4.90;86.20;;;;;;4922337;29;20988;-50
2022/01/10 01:40:55;;;;;;;5.17;2.90;;;4.90;86.20;;;;;;4918283;29;20483;-50
2022/01/10 01:43:22;;;;;;;6.60;4.17;;;4.90;86.30;;;;;;4921021;29;20837;-50
2022/01/10 01:45:49;;;;;;;7.87;4.67;;;4.80;86.40;;;;;;4927069;29;20488;-50
2022/01/10 01:48:16;;;;;;;7.47;4.03;;;4.80;86.30;;;;;;4917368;29;20519;-50
2022/01/10 01:50:44;;;;;;;5.17;3.87;;;4.80;86.40;;;;;;4927455;29;20460;-49
2022/01/10 01:53:11;;;;;;;9.30;3.90;;;4.80;86.30;;;;;;4914462;29;20468;-50
2022/01/10 01:55:37;;;;;;;5.30;4.80;;;4.80;86.30;;;;;;4914511;29;20975;-51
2022/01/10 01:58:04;;;;;;;14.63;5.17;;;4.90;86.30;;;;;;4926477;29;20499;-50
2022/01/10 02:00:31;;;;;;;4.70;3.70;;;4.90;86.10;;;;;;4922679;29;20460;-49
2022/01/10 02:02:58;;;;;;;6.90;3.67;;;4.90;86.00;;;;;;4910173;29;20491;-50
2022/01/10 02:05:25;;;;;;;4.20;3.70;;;4.80;85.90;;;;;;4913015;29;20472;-50
2022/01/10 02:07:52;;;;;;;5.13;3.60;;;4.80;86.20;;;;;;4939637;28;20463;-50
2022/01/10 02:10:19;;;;;;;7.70;3.43;;;4.90;86.20;;;;;;4926294;29;20467;-50
2022/01/10 02:12:46;;;;;;;6.57;4.10;;;4.90;86.20;;;;;;4926906;29;20468;-50
2022/01/10 02:15:26;;;;;;;8.20;3.60;;;4.90;86.20;;;;;;4936751;28;20475;-50
2022/01/10 02:17:58;;;;;;;6.20;3.90;;;4.90;86.20;;;;;;4910889;29;20491;-50
2022/01/10 02:20:31;;;;;;;6.20;3.00;;;4.90;86.20;;;;;;4926233;29;20464;-50
2022/01/10 02:22:58;;;;;;;5.50;3.00;;;4.90;85.90;;;;;;4926623;29;20530;-49
2022/01/10 02:25:25;;;;;;;11.67;3.60;;;5.00;85.90;;;;;;4926479;29;20475;-50
2022/01/10 02:27:54;;;;;;;6.93;3.40;;;4.90;85.90;;;;;;4910819;29;20475;-49
2022/01/10 02:30:21;;;;;;;6.10;3.00;;;4.90;86.00;;;;;;4923813;29;20975;-49
2022/01/10 02:32:49;;;;;;;4.60;3.13;;;4.90;85.80;;;;;;4927693;29;20468;-49
2022/01/10 02:35:24;;;;;;;6.07;2.83;;;4.90;85.90;;;;;;4926846;29;20475;-51
2022/01/10 02:37:53;;;;;;;7.23;3.20;;;4.90;86.10;;;;;;4923069;29;20495;-51
2022/01/10 02:40:23;;;;;;;6.37;2.90;;;4.90;85.70;;;;;;4927538;29;21166;-50
2022/01/10 02:42:50;;;;;;;6.33;3.30;;;4.80;85.70;;;;;;4927853;29;20832;-49
2022/01/10 02:45:18;;;;;;;4.40;2.60;;;4.80;85.80;;;;;;4925194;29;20472;-49
2022/01/10 02:47:47;;;;;;;9.63;3.50;;;4.80;85.60;;;;;;4925923;29;20830;-49
2022/01/10 02:50:17;;;;;;;8.03;3.20;;;4.80;85.70;;;;;;4925093;29;20476;-50
2022/01/10 02:52:45;;;;;;;14.57;8.80;;;4.80;85.50;;;;;;4942891;28;20522;-50
2022/01/10 02:55:13;;;;;;;7.57;5.40;;;4.80;85.40;;;;;;4924250;29;20475;-50
2022/01/10 02:57:41;;;;;;;5.17;3.30;;;4.90;85.30;;;;;;4910310;29;20523;-51
2022/01/10 03:00:19;;;;;;;3.07;2.77;;;4.80;85.20;;;;;;4923809;29;20453;-49
2022/01/10 03:02:50;;;;;;;6.20;3.30;;;4.90;85.00;;;;;;4926557;29;20460;-49
2022/01/10 03:05:19;;;;;;;6.10;3.80;;;4.90;85.10;;;;;;4919889;29;20596;-50
2022/01/10 03:07:47;;;;;;;4.77;3.17;;;4.80;85.40;;;;;;4923286;29;20471;-50
2022/01/10 03:10:14;;;;;;;3.30;2.57;;;4.90;85.80;;;;;;4925930;29;20468;-49
2022/01/10 03:12:42;;;;;;;5.63;2.83;;;4.80;85.80;;;;;;4924322;29;20476;-50
2022/01/10 03:15:10;;;;;;;5.70;3.60;;;4.80;86.00;;;;;;4925584;29;20550;-51
2022/01/10 03:17:37;;;;;;;4.03;3.57;;;4.80;86.10;;;;;;4909523;29;20502;-49
2022/01/10 03:20:07;;;;;;;8.77;3.47;;;4.80;86.10;;;;;;4925358;29;20498;-50
2022/01/10 03:22:33;;;;;;;5.30;3.67;;;4.80;86.30;;;;;;4912171;29;20501;-49
2022/01/10 03:25:00;;;;;;;6.87;3.50;;;4.90;86.10;;;;;;4925435;29;20989;-48
2022/01/10 03:27:27;;;;;;;3.47;2.73;;;4.90;86.10;;;;;;4938379;28;21033;-49
2022/01/10 03:29:54;;;;;;;4.37;2.80;;;4.90;86.10;;;;;;4925719;29;20938;-49
2022/01/10 03:32:22;;;;;;;6.00;3.17;;;4.90;86.00;;;;;;4922489;29;20477;-49
2022/01/10 03:34:48;;;;;;;6.30;5.33;;;4.80;86.10;;;;;;4925288;29;20470;-48
2022/01/10 03:37:15;;;;;;;4.53;3.00;;;4.80;86.10;;;;;;4924200;29;20497;-48
2022/01/10 03:39:44;;;;;;;5.30;2.63;;;4.80;86.00;;;;;;4923885;29;20834;-48
2022/01/10 03:42:12;;;;;;;6.50;2.80;;;4.80;86.00;;;;;;4924613;29;20464;-48
2022/01/10 03:44:39;;;;;;;2.70;2.30;;;4.80;86.20;;;;;;4925902;29;20477;-49
2022/01/10 03:47:07;;;;;;;6.07;2.87;;;4.90;86.00;;;;;;4926266;29;20468;-48
2022/01/10 03:49:34;;;;;;;6.40;2.70;;;4.90;85.70;;;;;;4924139;29;20937;-48
2022/01/10 03:52:01;;;;;;;5.60;3.23;;;4.90;85.80;;;;;;4925645;29;20456;-52
2022/01/10 03:54:28;;;;;;;6.23;3.87;;;4.90;85.80;;;;;;4923815;29;20474;-52
2022/01/10 03:56:55;;;;;;;7.40;3.70;;;4.90;85.90;;;;;;4924492;29;20511;-51
2022/01/10 03:59:22;;;;;;;7.83;3.57;;;4.90;86.00;;;;;;4924003;29;20475;-51
2022/01/10 04:01:51;;;;;;;12.83;4.07;;;4.90;86.00;;;;;;4911836;29;20470;-52
2022/01/10 04:04:18;;;;;;;8.03;3.40;;;4.80;86.00;;;;;;4923801;29;20475;-51
2022/01/10 04:06:45;;;;;;;8.53;3.70;;;4.80;86.10;;;;;;4924109;29;20472;-52
2022/01/10 04:09:11;;;;;;;5.50;4.23;;;4.90;86.20;;;;;;4925696;29;20844;-52
2022/01/10 04:11:38;;;;;;;5.97;3.27;;;5.00;86.20;;;;;;4922358;29;20467;-52
2022/01/10 04:14:05;;;;;;;6.70;3.50;;;4.90;86.10;;;;;;4922629;29;20460;-53
2022/01/10 04:16:32;;;;;;;5.83;3.87;;;4.90;86.20;;;;;;4927345;29;20764;-52
2022/01/10 04:18:59;;;;;;;8.43;3.80;;;5.00;85.80;;;;;;4923488;29;20474;-51
2022/01/10 04:21:25;;;;;;;4.03;3.40;;;5.00;85.90;;;;;;4920871;29;20473;-52
2022/01/10 04:23:52;;;;;;;7.87;3.07;;;5.00;85.80;;;;;;4921260;29;20488;-52
2022/01/10 04:26:19;;;;;;;7.87;3.93;;;4.90;86.00;;;;;;4922458;29;20853;-52
2022/01/10 04:28:46;;;;;;;4.83;3.47;;;4.90;86.30;;;;;;4904066;29;20917;-52
2022/01/10 04:31:13;;;;;;;6.93;4.13;;;5.00;86.40;;;;;;4922486;29;20479;-52
2022/01/10 04:33:40;;;;;;;4.80;3.63;;;5.00;86.10;;;;;;4926307;29;20483;-52
2022/01/10 04:36:06;;;;;;;7.00;4.53;;;4.90;86.40;;;;;;4921648;29;20465;-51
2022/01/10 04:38:34;;;;;;;7.20;3.87;;;5.00;86.30;;;;;;4926601;29;20501;-52
2022/01/10 04:41:03;;;;;;;5.20;4.10;;;4.90;86.30;;;;;;4921874;29;20910;-51
2022/01/10 04:43:30;;;;;;;7.23;4.07;;;4.90;86.40;;;;;;4910940;29;20807;-52
2022/01/10 04:46:00;;;;;;;5.00;4.03;;;4.90;86.50;;;;;;4923167;29;20467;-52
2022/01/10 04:48:27;;;;;;;7.63;3.90;;;4.80;86.50;;;;;;4922722;29;20894;-51
2022/01/10 04:53:30;;;;;;;4.00;3.17;;;5.00;86.30;;;;;;4924440;29;20837;-52
2022/01/10 04:55:56;;;;;;;6.87;4.27;;;4.90;86.20;;;;;;4926551;29;20475;-52
2022/01/10 04:58:24;;;;;;;9.17;4.50;;;4.90;86.20;;;;;;4926690;29;20496;-51
2022/01/10 05:00:55;;;;;;;8.57;4.20;;;4.90;86.10;;;;;;4928151;29;21051;-51
2022/01/10 05:03:22;;;;;;;6.67;3.53;;;4.90;86.00;;;;;;4909939;29;21004;-51
2022/01/10 05:05:53;;;;;;;5.33;3.70;;;4.80;86.20;;;;;;4920542;29;20499;-49
2022/01/10 05:08:21;;;;;;;5.27;4.03;;;4.80;86.10;;;;;;4924980;29;20460;-48
2022/01/10 05:10:49;;;;;;;5.07;4.00;;;4.80;85.90;;;;;;4911947;29;20966;-48
2022/01/10 05:13:16;;;;;;;5.80;3.40;;;4.80;85.60;;;;;;4937355;28;20474;-49
2022/01/10 05:15:46;;;;;;;4.60;3.80;;;4.80;85.30;;;;;;4923993;29;20471;-49
2022/01/10 05:18:14;;;;;;;7.53;3.57;;;4.80;84.90;;;;;;4923168;29;20531;-49
2022/01/10 05:20:40;;;;;;;8.20;3.80;;;4.70;85.00;;;;;;4922347;29;20475;-53
2022/01/10 05:23:07;;;;;;;5.53;3.83;;;4.70;85.00;;;;;;4908941;29;20498;-52
2022/01/10 05:25:39;;;;;;;6.13;3.47;;;4.60;84.90;;;;;;4921417;29;20470;-52
2022/01/10 05:28:08;;;;;;;9.03;4.33;;;4.50;84.90;;;;;;4937210;28;20844;-52
2022/01/10 05:30:36;;;;;;;9.00;3.93;;;4.50;84.70;;;;;;4912968;29;20475;-52
2022/01/10 05:33:03;;;;;;;8.20;3.93;;;4.50;85.00;;;;;;4924382;29;20464;-52
2022/01/10 05:35:30;;;;;;;4.80;3.40;;;4.40;85.20;;;;;;4926554;29;21302;-52
2022/01/10 05:37:57;;;;;;;5.97;3.13;;;4.40;84.90;;;;;;4926461;29;20498;-52
2022/01/10 05:40:24;;;;;;;6.17;3.70;;;4.40;84.80;;;;;;4920261;29;20456;-52
2022/01/10 05:42:51;;;;;;;7.90;4.00;;;4.40;84.70;;;;;;4909827;29;20472;-51
2022/01/10 05:45:18;;;;;;;4.20;3.27;;;4.30;84.80;;;;;;4912117;29;20471;-52
2022/01/10 05:47:46;;;;;;;6.93;4.00;;;4.30;84.70;;;;;;4926572;29;20836;-52
2022/01/10 05:50:18;;;;;;;5.43;3.50;;;4.20;84.80;;;;;;4908024;29;20470;-51
2022/01/10 05:52:46;;;;;;;9.07;5.00;;;4.10;85.10;;;;;;4922277;29;20490;-51
2022/01/10 05:55:13;;;;;;;5.20;3.90;;;4.00;85.20;;;;;;4921430;29;20479;-51
2022/01/10 05:57:40;;;;;;;7.83;3.70;;;4.00;85.40;;;;;;4923543;29;21039;-53
2022/01/10 06:00:08;;;;;;;3.40;3.10;;;3.90;85.50;;;;;;4920106;29;20464;-52
2022/01/10 06:02:35;;;;;;;4.67;3.63;;;4.00;85.40;;;;;;4922267;29;20563;-52
2022/01/10 06:05:08;;;;;;;6.17;3.20;;;4.00;85.50;;;;;;4913898;29;20474;-51
2022/01/10 06:07:38;;;;;;;4.13;3.50;;;4.00;85.60;;;;;;4923871;29;20552;-52
2022/01/10 06:10:06;;;;;;;11.57;3.13;;;3.90;85.70;;;;;;4938448;28;20471;-52
2022/01/10 06:12:33;;;;;;;4.00;3.43;;;3.80;85.80;;;;;;4911683;29;20471;-51
2022/01/10 06:15:00;;;;;;;7.07;4.00;;;3.80;85.90;;;;;;4925038;29;20461;-51
2022/01/10 06:17:27;;;;;;;5.90;3.30;;;3.80;85.80;;;;;;4923386;29;20590;-51
2022/01/10 06:19:54;;;;;;;7.60;5.07;;;3.80;86.10;;;;;;4919033;29;20496;-52
2022/01/10 06:22:21;;;;;;;9.47;3.80;;;3.80;86.20;;;;;;4919553;29;20471;-51
2022/01/10 06:24:54;;;;;;;6.43;3.87;;;3.70;86.30;;;;;;4915108;29;20511;-51
2022/01/10 06:27:20;;;;;;;5.83;4.20;;;3.70;86.50;;;;;;4920280;29;20464;-52
2022/01/10 06:29:47;;;;;;;9.03;3.97;;;3.70;86.60;;;;;;4924041;29;20468;-51
2022/01/10 06:32:14;;;;;;;4.93;3.43;;;3.70;86.50;;;;;;4921598;29;20471;-52
2022/01/10 06:34:41;;;;;;;7.80;4.30;;;3.70;86.70;;;;;;4912225;29;20986;-52
2022/01/10 06:37:07;;;;;;;6.10;4.77;;;3.70;86.50;;;;;;4923298;29;20981;-51
2022/01/10 06:39:35;;;;;;;8.27;4.77;;;3.80;86.30;;;;;;4925040;29;20917;-51
2022/01/10 06:42:02;;;;;;;7.97;4.47;;;3.70;86.20;;;;;;4924111;29;20981;-51
2022/01/10 06:44:29;;;;;;;6.50;5.27;;;3.70;86.30;;;;;;4924523;29;20460;-51
2022/01/10 06:46:57;;;;;;;8.33;4.90;;;3.60;86.30;;;;;;4941229;28;20829;-52
2022/01/10 06:49:24;;;;;;;12.03;5.40;;;3.60;86.40;;;;;;4924425;29;20498;-51
2022/01/10 06:51:51;;;;;;;5.17;3.50;;;3.60;86.40;;;;;;4910001;29;20469;-51
2022/01/10 06:54:18;;;;;;;7.73;4.30;;;3.60;86.30;;;;;;4924515;29;20472;-52
2022/01/10 06:56:49;;;;;;;7.67;4.63;;;3.50;86.40;;;;;;4925559;29;20464;-52
2022/01/10 06:59:16;;;;;;;5.27;4.20;;;3.50;86.40;;;;;;4923660;29;20934;-50
2022/01/10 07:01:44;;;;;;;8.07;4.60;;;3.40;86.60;;;;;;4925455;29;20464;-52
2022/01/10 07:04:12;;;;;;;5.50;4.70;;;3.40;86.50;;;;;;4923945;29;20555;-52
2022/01/10 07:06:41;;;;;;;6.63;3.97;;;3.40;86.40;;;;;;4926178;29;20476;-52
2022/01/10 07:09:08;;;;;;;5.40;4.90;;;3.40;86.50;;;;;;4908124;29;20610;-52
2022/01/10 07:11:34;;;;;;;6.20;4.63;;;3.40;86.40;;;;;;4924793;29;20872;-52
2022/01/10 07:14:03;;;;;;;5.00;4.50;;;3.40;86.40;;;;;;4897699;29;20484;-52
2022/01/10 07:16:30;;;;;;;7.47;4.20;;;3.30;86.60;;;;;;4925852;29;20482;-52
2022/01/10 07:18:57;;;;;;;9.17;4.83;;;3.20;86.80;;;;;;4912349;29;20496;-53
2022/01/10 07:21:24;;;;;;;5.97;4.70;;;3.20;87.10;;;;;;4922430;29;20548;-51
2022/01/10 07:23:51;;;;;;;4.40;4.00;;;3.20;87.10;;;;;;4904083;29;20503;-52
2022/01/10 07:26:17;;;;;;;8.93;5.00;;;3.20;87.10;;;;;;4911445;29;20464;-52
2022/01/10 07:28:51;;;;;;;6.90;4.73;;;3.20;87.00;;;;;;4920519;29;20545;-52
2022/01/10 07:31:18;;;;;;;9.60;5.20;;;3.20;86.80;;;;;;4913773;29;20468;-52
2022/01/10 07:33:45;;;;;;;12.63;5.23;;;3.20;86.70;;;;;;4911777;29;20559;-51
2022/01/10 07:36:12;;;;;;;9.60;5.40;;;3.30;86.60;;;;;;4927393;29;20472;-51
2022/01/10 07:38:38;;;;;;;8.37;4.80;;;3.30;86.40;;;;;;4923529;29;20596;-51
2022/01/10 07:41:06;;;;;;;8.77;5.43;;;3.20;86.50;;;;;;4921335;29;20991;-51
2022/01/10 07:43:34;;;;;;;9.60;4.73;;;3.20;86.60;;;;;;4938323;28;20472;-50
2022/01/10 07:46:02;;;;;;;10.37;5.77;;;3.30;86.40;;;;;;4921398;29;20468;-51
2022/01/10 07:48:31;;;;;;;10.77;4.27;;;3.20;86.30;;;;;;4921791;29;20479;-51
2022/01/10 07:50:58;;;;;;;10.73;5.23;;;3.10;86.60;;;;;;4923601;29;20550;-51
2022/01/10 07:53:25;;;;;;;11.00;5.23;;;3.10;86.80;;;;;;4922902;29;20492;-53
2022/01/10 07:55:57;;;;;;;8.40;5.47;;;3.20;86.60;;;;;;4921505;29;20504;-52
2022/01/10 07:58:25;;;;;;;11.10;6.27;;;3.10;86.80;;;;;;4922816;29;20578;-51
2022/01/10 08:00:51;;;;;;;8.07;5.07;;;3.10;87.00;;;;;;4919285;29;20471;-53
2022/01/10 08:03:18;;;;;;;11.70;5.40;;;3.10;87.00;;;;;;4925602;29;20464;-53
2022/01/10 08:05:45;;;;;;;6.13;5.57;;;3.10;86.90;;;;;;4920226;29;20448;-52
2022/01/10 08:08:12;;;;;;;6.33;4.20;;;3.10;86.70;;;;;;4922553;29;20836;-50
2022/01/10 08:10:39;;;;;;;7.10;4.20;;;3.10;86.70;;;;;;4922872;29;20958;-50
2022/01/10 08:13:06;;;;;;;8.97;5.33;;;3.10;86.80;;;;;;4905876;29;20552;-51
2022/01/10 08:15:33;;;;;;;6.43;4.90;;;3.10;86.80;;;;;;4920938;29;20464;-51
2022/01/10 08:18:01;;;;;;;5.17;4.43;;;3.10;86.80;;;;;;4920391;29;20795;-50
2022/01/10 08:20:28;;;;;;;7.67;5.30;;;3.10;87.00;;;;;;4922526;29;20471;-50
2022/01/10 08:22:55;;;;;;;6.57;5.33;;;3.10;87.10;;;;;;4920823;29;20526;-51
2022/01/10 08:25:21;;;;;;;10.37;5.33;;;3.20;87.00;;;;;;4923314;29;20532;-51
2022/01/10 08:27:48;;;;;;;10.33;6.37;;;3.20;87.00;;;;;;4925928;29;20542;-51
2022/01/10 08:30:16;;;;;;;10.77;6.07;;;3.20;87.00;;;;;;4924186;29;20895;-51
2022/01/10 08:32:46;;;;;;;9.50;5.60;;;3.20;87.20;;;;;;4922155;29;20461;-51
2022/01/10 08:35:13;;;;;;;8.97;5.80;;;3.20;87.00;;;;;;4920652;29;20460;-51
2022/01/10 08:37:40;;;;;;;11.00;6.93;;;3.20;87.10;;;;;;4925938;29;20517;-50
2022/01/10 08:40:07;;;;;;;8.83;6.80;;;3.20;87.30;;;;;;4909745;29;20523;-52
2022/01/10 08:42:34;;;;;;;14.30;6.63;;;3.30;87.40;;;;;;4925219;29;20463;-52
2022/01/10 08:45:01;;;;;;;10.30;7.40;;;3.30;87.40;;;;;;4924157;29;20940;-52
2022/01/10 08:47:29;;;;;;;18.30;7.07;;;3.40;87.60;;;;;;4937489;28;20452;-52
2022/01/10 08:49:56;;;;;;;10.40;7.10;;;3.40;87.80;;;;;;4923973;29;21010;-52
2022/01/10 08:52:23;;;;;;;12.10;7.47;;;3.40;87.80;;;;;;4924606;29;20466;-52
2022/01/10 08:54:50;;;;;;;15.43;9.17;;;3.40;87.90;;;;;;4920553;29;20460;-52
2022/01/10 08:57:17;;;;;;;14.30;6.57;;;3.50;88.20;;;;;;4919778;29;20476;-52
2022/01/10 08:59:44;;;;;;;11.63;7.20;;;3.60;87.90;;;;;;4905439;29;20570;-52
2022/01/10 09:02:13;;;;;;;9.67;6.10;;;3.60;87.90;;;;;;4906309;29;20623;-52
2022/01/10 09:04:40;;;;;;;16.20;6.93;;;3.70;87.90;;;;;;4936730;28;20843;-52
2022/01/10 09:07:08;;;;;;;11.83;7.20;;;3.70;88.00;;;;;;4920072;29;20509;-52
2022/01/10 09:09:37;;;;;;;8.63;6.57;;;3.70;87.80;;;;;;4919325;29;20471;-52
2022/01/10 09:12:04;;;;;;;10.63;5.63;;;3.70;87.90;;;;;;4919495;29;20856;-52
2022/01/10 09:14:31;;;;;;;16.93;6.70;;;3.70;87.70;;;;;;4919293;29;21057;-52
2022/01/10 09:16:58;;;;;;;10.90;6.43;;;3.80;87.80;;;;;;4919087;29;20897;-52
2022/01/10 09:19:25;;;;;;;10.00;6.37;;;3.80;87.60;;;;;;4920540;29;20622;-52
2022/01/10 09:21:51;;;;;;;16.00;7.20;;;3.90;87.60;;;;;;4924790;29;20812;-52
2022/01/10 09:24:19;;;;;;;12.73;6.73;;;3.90;87.40;;;;;;4918562;29;20509;-52
2022/01/10 09:26:45;;;;;;;12.43;6.63;;;4.00;87.10;;;;;;4925487;29;20838;-52
2022/01/10 09:29:12;;;;;;;13.13;7.00;;;4.00;86.80;;;;;;4910900;29;20475;-52
2022/01/10 09:31:39;;;;;;;15.40;7.00;;;4.10;87.30;;;;;;4920646;29;20476;-52
2022/01/10 09:34:06;;;;;;;11.50;6.87;;;4.10;87.20;;;;;;4921899;29;20467;-52
2022/01/10 09:36:34;;;;;;;17.93;7.60;;;4.20;87.40;;;;;;4922633;29;20849;-51
2022/01/10 09:39:03;;;;;;;16.50;7.03;;;4.30;87.00;;;;;;4910225;29;21414;-53
2022/01/10 09:41:29;;;;;;;11.30;7.20;;;4.30;86.60;;;;;;4921384;29;20464;-53
2022/01/10 09:44:01;;;;;;;9.03;6.63;;;4.40;86.70;;;;;;4924575;29;20503;-53
2022/01/10 09:46:29;;;;;;;21.13;7.87;;;4.50;86.70;;;;;;4921975;29;20544;-53
2022/01/10 09:49:02;;;;;;;14.93;7.80;;;4.60;85.90;;;;;;4913697;29;20550;-51
2022/01/10 09:51:29;;;;;;;14.33;7.20;;;4.70;86.00;;;;;;4907410;29;20900;-52
2022/01/10 09:54:01;;;;;;;14.27;8.00;;;4.70;86.20;;;;;;4922627;29;20965;-52
2022/01/10 09:56:30;;;;;;;14.47;6.60;;;4.90;84.70;;;;;;4924534;29;20726;-51
2022/01/10 09:58:58;;;;;;;14.40;8.27;;;5.10;84.80;;;;;;4919336;29;20915;-52
2022/01/10 10:01:27;;;;;;;13.70;7.53;;;5.20;85.20;;;;;;4909886;29;20466;-52
2022/01/10 10:04:02;;;;;;;14.33;8.27;;;5.40;85.10;;;;;;4921707;29;20479;-52
2022/01/10 10:06:31;;;;;;;12.13;7.37;;;5.70;84.00;;;;;;4924149;29;20464;-51
2022/01/10 10:09:04;;;;;;;12.30;7.43;;;5.90;82.80;;;;;;4937400;28;20495;-52
2022/01/10 10:11:42;;;;;;;12.63;7.80;;;5.90;82.40;;;;;;4922499;29;20476;-52
2022/01/10 10:14:12;;;;;;;11.70;7.13;;;6.00;82.30;;;;;;4925160;29;20567;-52
2022/01/10 10:16:47;;;;;;;16.20;8.80;;;6.10;82.00;;;;;;4921754;29;21019;-51
2022/01/10 10:19:16;;;;;;;13.50;7.67;;;6.30;80.40;;;;;;4924437;29;20491;-52
2022/01/10 10:21:42;;;;;;;9.07;7.60;;;6.30;80.00;;;;;;4922961;29;20543;-51
2022/01/10 10:24:09;;;;;;;15.10;7.83;;;6.30;80.30;;;;;;4911984;29;20496;-51
2022/01/10 10:26:36;;;;;;;15.50;8.50;;;6.30;80.10;;;;;;4914075;29;20934;-53
2022/01/10 10:29:03;;;;;;;15.30;8.80;;;6.30;80.00;;;;;;4923483;29;20832;-52
2022/01/10 10:31:43;;;;;;;12.47;7.60;;;6.40;79.50;;;;;;4925580;29;20467;-51
2022/01/10 10:34:12;;;;;;;14.30;8.83;;;6.40;78.70;;;;;;4924509;29;20464;-52
2022/01/10 10:36:39;;;;;;;15.33;7.50;;;6.40;78.40;;;;;;4927188;29;20468;-52
2022/01/10 10:39:10;;;;;;;13.57;8.53;;;6.50;77.40;;;;;;4921393;29;21039;-52
2022/01/10 10:41:39;;;;;;;27.87;10.00;;;6.50;77.10;;;;;;4921956;29;20464;-52
2022/01/10 10:44:05;;;;;;;10.80;7.50;;;6.50;77.60;;;;;;4923065;29;20478;-51
2022/01/10 10:46:35;;;;;;;11.93;6.93;;;6.40;77.90;;;;;;4922476;29;20465;-52
2022/01/10 10:49:04;;;;;;;14.20;8.13;;;6.40;77.70;;;;;;4923294;29;20946;-51
2022/01/10 10:51:35;;;;;;;12.50;7.60;;;6.40;77.50;;;;;;4924892;29;21053;-51
2022/01/10 10:54:05;;;;;;;9.83;6.77;;;6.40;77.80;;;;;;4920580;29;20989;-51
2022/01/10 10:56:36;;;;;;;11.00;7.60;;;6.40;78.10;;;;;;4924629;29;20530;-51
2022/01/10 10:59:06;;;;;;;11.53;7.53;;;6.40;77.90;;;;;;4924613;29;20499;-52
2022/01/10 11:01:36;;;;;;;16.33;9.37;;;6.40;78.20;;;;;;4911247;29;20497;-51
2022/01/10 11:04:09;;;;;;;10.50;8.07;;;6.40;78.40;;;;;;4919763;29;20468;-51
2022/01/10 11:06:37;;;;;;;12.40;7.90;;;6.40;78.40;;;;;;4923709;29;20547;-53
2022/01/10 11:09:09;;;;;;;12.97;7.67;;;6.40;78.60;;;;;;4924533;29;20480;-52
2022/01/10 11:11:35;;;;;;;15.43;8.43;;;6.50;78.50;;;;;;4922494;29;20486;-53
2022/01/10 11:14:04;;;;;;;11.53;7.10;;;6.50;77.60;;;;;;4921422;29;20544;-53
2022/01/10 11:16:31;;;;;;;14.10;8.20;;;6.60;77.70;;;;;;4937706;28;20752;-53
2022/01/10 11:18:59;;;;;;;12.33;6.70;;;6.60;77.30;;;;;;4921726;29;20493;-53
2022/01/10 11:21:27;;;;;;;11.60;7.27;;;6.60;76.90;;;;;;4923032;29;20495;-52
2022/01/10 11:23:56;;;;;;;11.60;7.07;;;6.70;76.60;;;;;;4918706;29;21012;-53
2022/01/10 11:26:40;;;;;;;14.47;7.60;;;6.60;77.00;;;;;;4923255;29;20487;-52
2022/01/10 11:29:10;;;;;;;14.50;6.97;;;6.60;76.80;;;;;;4908251;29;20455;-52
2022/01/10 11:31:41;;;;;;;13.70;7.80;;;6.60;77.10;;;;;;4942448;28;20982;-51
2022/01/10 11:34:10;;;;;;;11.17;6.70;;;6.60;76.50;;;;;;4923153;29;20456;-53
2022/01/10 11:36:46;;;;;;;17.97;7.63;;;6.60;76.90;;;;;;4923828;29;20487;-52
2022/01/10 11:39:13;;;;;;;13.10;7.57;;;6.60;77.00;;;;;;4921121;29;20487;-52
2022/01/10 11:41:40;;;;;;;15.80;7.73;;;6.60;77.20;;;;;;4922097;29;20460;-52
2022/01/10 11:44:09;;;;;;;12.50;8.10;;;6.60;77.10;;;;;;4919396;29;21021;-52
2022/01/10 11:46:41;;;;;;;16.43;9.63;;;6.60;76.90;;;;;;4906855;29;20457;-52
2022/01/10 11:49:08;;;;;;;20.03;8.57;;;6.60;77.10;;;;;;4917379;29;20478;-53
2022/01/10 11:51:35;;;;;;;19.90;9.07;;;6.60;76.90;;;;;;4924159;29;20469;-51
2022/01/10 11:54:26;;;;;;;14.27;8.17;;;6.60;77.20;;;;;;4922137;29;20460;-51
2022/01/10 11:56:57;;;;;;;10.27;6.30;;;6.70;76.90;;;;;;4925764;29;20499;-52
2022/01/10 11:59:26;;;;;;;18.47;6.97;;;6.70;76.80;;;;;;4921526;29;20554;-52
2022/01/10 12:01:59;;;;;;;15.03;7.80;;;6.70;76.40;;;;;;4924935;29;20844;-52
2022/01/10 12:04:30;;;;;;;8.93;6.10;;;6.70;75.70;;;;;;4920801;29;20942;-52
2022/01/10 12:06:57;;;;;;;13.33;8.50;;;6.80;75.50;;;;;;4923746;29;20839;-51
2022/01/10 12:09:25;;;;;;;11.43;7.17;;;6.80;75.10;;;;;;4926865;29;20472;-52
2022/01/10 12:11:57;;;;;;;8.13;5.73;;;6.80;75.30;;;;;;4922643;29;20921;-53
2022/01/10 12:14:25;;;;;;;10.47;6.97;;;6.80;74.80;;;;;;4905580;29;20792;-52
2022/01/10 12:16:53;;;;;;;10.87;6.43;;;6.90;75.40;;;;;;4920270;29;20464;-52
2022/01/10 12:19:21;;;;;;;11.80;6.53;;;6.90;75.10;;;;;;4936948;28;20519;-52
2022/01/10 12:21:48;;;;;;;11.20;6.87;;;7.00;74.80;;;;;;4917587;29;20468;-52
2022/01/10 12:24:15;;;;;;;11.70;6.43;;;7.00;74.40;;;;;;4920118;29;20835;-52
2022/01/10 12:26:47;;;;;;;9.80;6.87;;;7.10;74.30;;;;;;4908469;29;20464;-52
2022/01/10 12:29:17;;;;;;;10.40;6.10;;;7.20;74.10;;;;;;4911014;29;20498;-52
2022/01/10 12:31:46;;;;;;;15.50;5.40;;;7.20;73.60;;;;;;4922023;29;20459;-52
2022/01/10 12:34:15;;;;;;;9.40;5.57;;;7.10;73.40;;;;;;4910322;29;20460;-52
2022/01/10 12:36:43;;;;;;;10.07;5.43;;;7.20;72.70;;;;;;4923089;29;20486;-53
2022/01/10 12:39:27;;;;;;;10.30;6.33;;;7.20;72.60;;;;;;4918895;29;20599;-53
2022/01/10 12:41:58;;;;;;;11.50;5.57;;;7.30;72.30;;;;;;4917109;29;20534;-52
2022/01/10 12:44:26;;;;;;;13.37;6.43;;;7.30;72.20;;;;;;4908150;29;20480;-52
2022/01/10 12:46:54;;;;;;;19.87;6.40;;;7.40;71.40;;;;;;4933402;28;20498;-52
2022/01/10 12:49:21;;;;;;;11.23;6.37;;;7.40;71.30;;;;;;4909382;29;20457;-52
2022/01/10 12:51:56;;;;;;;16.97;6.57;;;7.50;71.20;;;;;;4910341;29;20483;-53
2022/01/10 12:54:30;;;;;;;9.43;6.30;;;7.40;71.50;;;;;;4921001;29;20479;-52
2022/01/10 12:57:02;;;;;;;11.93;5.83;;;7.40;71.50;;;;;;4921883;29;20464;-52
2022/01/10 12:59:31;;;;;;;14.90;6.20;;;7.40;71.60;;;;;;4921313;29;20871;-52
2022/01/10 13:02:00;;;;;;;9.57;5.87;;;7.40;71.80;;;;;;4927013;29;20440;-52
2022/01/10 13:04:34;;;;;;;8.47;5.37;;;7.50;72.00;;;;;;4922246;29;20523;-52
2022/01/10 13:07:06;;;;;;;14.10;6.67;;;7.50;71.00;;;;;;4919653;29;20992;-52
2022/01/10 13:09:54;;;;;;;9.50;6.13;;;7.50;71.50;;;;;;4910968;29;20472;-52